createdAt,value
2023-04-17T00:00:32.857Z,29.30
2023-04-17T00:03:01.500Z,26.80
2023-04-17T00:05:28.831Z,28.02
2023-04-17T00:07:55.461Z,28.73
2023-04-17T00:10:21.981Z,27.15
2023-04-17T00:12:48.636Z,26.20
2023-04-17T00:15:15.324Z,27.93
2023-04-17T00:17:41.943Z,24.40
2023-04-17T00:20:12.377Z,27.42
2023-04-17T00:22:39.092Z,30.63
2023-04-17T00:25:06.456Z,27.02
2023-04-17T00:27:32.978Z,28.67
2023-04-17T00:29:59.479Z,26.88
2023-04-17T00:32:25.995Z,29.60
2023-04-17T00:34:55.590Z,29.20
2023-04-17T00:37:22.709Z,30.33
2023-04-17T00:39:49.209Z,27.60
2023-04-17T00:42:15.945Z,26.40
2023-04-17T00:44:42.423Z,25.17
2023-04-17T00:47:08.972Z,28.65
2023-04-17T00:49:36.088Z,32.33
2023-04-17T00:52:03.713Z,27.70
2023-04-17T00:54:31.678Z,27.42
2023-04-17T00:56:59.571Z,30.40
2023-04-17T00:59:28.037Z,30.02
2023-04-17T01:01:54.661Z,29.70
2023-04-17T01:04:21.441Z,32.50
2023-04-17T01:06:48.325Z,24.88
2023-04-17T01:09:14.920Z,23.23
2023-04-17T01:11:41.465Z,27.25
2023-04-17T01:14:08.026Z,29.90
2023-04-17T01:16:35.494Z,26.43
2023-04-17T01:19:02.155Z,24.50
2023-04-17T01:21:28.738Z,29.85
2023-04-17T01:23:55.854Z,26.30
2023-04-17T01:26:30.823Z,31.48
2023-04-17T01:28:58.942Z,26.10
2023-04-17T01:31:27.637Z,26.17
2023-04-17T01:33:54.704Z,23.00
2023-04-17T01:36:21.649Z,26.20
2023-04-17T01:38:48.198Z,25.98
2023-04-17T01:41:14.806Z,24.73
2023-04-17T01:43:43.482Z,23.27
2023-04-17T01:46:10.742Z,26.50
2023-04-17T01:48:37.769Z,24.95
2023-04-17T01:51:05.029Z,26.77
2023-04-17T01:53:32.777Z,24.57
2023-04-17T01:56:02.759Z,26.33
2023-04-17T01:58:30.464Z,25.15
2023-04-17T02:00:57.362Z,26.77
2023-04-17T02:03:26.799Z,28.92
2023-04-17T02:05:53.852Z,29.17
2023-04-17T02:08:20.482Z,27.92
2023-04-17T02:10:47.011Z,26.17
2023-04-17T02:13:13.637Z,34.38
2023-04-17T02:15:41.350Z,29.92
2023-04-17T02:18:08.545Z,28.67
2023-04-17T02:20:36.020Z,29.23
2023-04-17T02:23:04.755Z,30.20
2023-04-17T02:25:31.557Z,29.63
2023-04-17T02:27:58.152Z,35.42
2023-04-17T02:30:25.416Z,31.20
2023-04-17T02:32:55.209Z,34.83
2023-04-17T02:35:24.297Z,26.63
2023-04-17T02:37:50.938Z,28.55
2023-04-17T02:40:17.916Z,31.60
2023-04-17T02:42:44.496Z,31.33
2023-04-17T02:45:13.136Z,40.45
2023-04-17T02:47:39.762Z,32.28
2023-04-17T02:50:07.048Z,37.30
2023-04-17T02:52:40.298Z,34.95
2023-04-17T02:55:07.057Z,36.67
2023-04-17T02:57:33.893Z,41.05
2023-04-17T03:00:01.514Z,33.92
2023-04-17T03:02:30.684Z,43.08
2023-04-17T03:04:57.383Z,43.60
2023-04-17T03:07:27.378Z,40.43
2023-04-17T03:09:53.911Z,41.13
2023-04-17T03:12:20.631Z,36.28
2023-04-17T03:14:47.183Z,38.15
2023-04-17T03:17:15.351Z,40.55
2023-04-17T03:19:42.073Z,41.73
2023-04-17T03:22:08.995Z,34.15
2023-04-17T03:24:35.691Z,38.55
2023-04-17T03:27:02.973Z,43.50
2023-04-17T03:29:37.119Z,38.80
2023-04-17T03:32:04.008Z,47.90
2023-04-17T03:34:32.287Z,43.05
2023-04-17T03:36:59.207Z,42.42
2023-04-17T03:39:25.947Z,43.22
2023-04-17T03:41:52.726Z,42.58
2023-04-17T03:44:19.339Z,41.27
2023-04-17T03:46:45.882Z,40.13
2023-04-17T03:49:12.888Z,40.05
2023-04-17T03:51:39.950Z,44.53
2023-04-17T03:54:12.690Z,42.15
2023-04-17T03:56:41.157Z,52.00
2023-04-17T03:59:08.265Z,39.40
2023-04-17T04:01:40.158Z,45.30
2023-04-17T04:04:14.280Z,44.15
2023-04-17T04:06:42.694Z,39.70
2023-04-17T04:09:14.099Z,43.97
2023-04-17T04:11:41.951Z,42.53
2023-04-17T04:14:08.643Z,42.22
2023-04-17T04:16:35.260Z,42.33
2023-04-17T04:19:08.578Z,46.55
2023-04-17T04:21:35.483Z,37.00
2023-04-17T04:24:04.491Z,38.00
2023-04-17T04:26:31.280Z,39.53
2023-04-17T04:29:00.575Z,49.78
2023-04-17T04:31:38.945Z,41.20
2023-04-17T04:34:07.792Z,36.93
2023-04-17T04:36:36.462Z,41.67
2023-04-17T04:39:25.988Z,41.95
2023-04-17T04:41:52.715Z,52.22
2023-04-17T04:44:22.653Z,47.20
2023-04-17T04:46:53.005Z,42.60
2023-04-17T04:49:20.153Z,43.88
2023-04-17T04:51:46.670Z,49.42
2023-04-17T04:54:13.548Z,48.00
2023-04-17T04:56:47.358Z,50.30
2023-04-17T04:59:15.573Z,42.90
2023-04-17T05:01:49.166Z,42.13
2023-04-17T05:04:18.500Z,45.78
2023-04-17T05:06:49.336Z,44.10
2023-04-17T05:09:17.097Z,43.28
2023-04-17T05:11:44.698Z,48.77
2023-04-17T05:14:11.206Z,45.05
2023-04-17T05:16:41.262Z,40.95
2023-04-17T05:19:07.851Z,50.53
2023-04-17T05:21:45.726Z,45.15
2023-04-17T05:24:12.816Z,55.07
2023-04-17T05:26:39.309Z,47.53
2023-04-17T05:29:07.514Z,50.40
2023-04-17T05:31:34.159Z,48.22
2023-04-17T05:34:06.671Z,50.92
2023-04-17T05:36:33.480Z,46.27
2023-04-17T05:39:03.796Z,52.35
2023-04-17T05:41:31.095Z,45.05
2023-04-17T05:43:57.603Z,44.88
2023-04-17T05:46:24.268Z,48.00
2023-04-17T05:48:51.378Z,47.87
2023-04-17T05:51:17.870Z,50.08
2023-04-17T05:53:44.894Z,63.22
2023-04-17T05:56:11.496Z,51.00
2023-04-17T05:58:38.422Z,49.13
2023-04-17T06:01:06.354Z,45.30
2023-04-17T06:03:34.177Z,44.58
2023-04-17T06:06:08.965Z,53.50
2023-04-17T06:08:35.930Z,46.88
2023-04-17T06:11:04.369Z,49.28
2023-04-17T06:13:31.001Z,49.33
2023-04-17T06:15:58.682Z,51.30
2023-04-17T06:18:25.310Z,39.45
2023-04-17T06:20:51.827Z,50.92
2023-04-17T06:23:18.363Z,43.08
2023-04-17T06:25:44.931Z,54.40
2023-04-17T06:28:12.274Z,47.65
2023-04-17T06:30:38.901Z,46.63
2023-04-17T06:33:07.162Z,43.75
2023-04-17T06:35:35.271Z,50.60
2023-04-17T06:38:12.748Z,49.07
2023-04-17T06:40:39.261Z,49.08
2023-04-17T06:43:07.169Z,50.53
2023-04-17T06:45:37.888Z,48.20
2023-04-17T06:48:06.285Z,48.80
2023-04-17T06:50:32.818Z,51.27
2023-04-17T06:52:59.402Z,51.28
2023-04-17T06:55:26.952Z,55.55
2023-04-17T06:57:54.294Z,45.95
2023-04-17T07:00:21.454Z,50.30
2023-04-17T07:02:48.129Z,46.30
2023-04-17T07:05:14.717Z,44.47
2023-04-17T07:07:41.582Z,45.55
2023-04-17T07:10:08.245Z,49.13
2023-04-17T07:12:34.804Z,47.30
2023-04-17T07:15:01.463Z,48.83
2023-04-17T07:17:28.028Z,49.28
2023-04-17T07:19:54.525Z,39.30
2023-04-17T07:22:21.702Z,43.28
2023-04-17T07:24:48.222Z,45.38
2023-04-17T07:27:14.702Z,54.30
2023-04-17T07:29:41.282Z,62.45
2023-04-17T07:32:07.822Z,51.50
2023-04-17T07:34:34.366Z,49.42
2023-04-17T07:37:01.280Z,48.13
2023-04-17T07:39:31.411Z,47.73
2023-04-17T07:41:57.959Z,43.47
2023-04-17T07:44:24.728Z,46.00
2023-04-17T07:46:51.317Z,46.30
2023-04-17T07:49:18.025Z,42.17
2023-04-17T07:51:44.800Z,48.87
2023-04-17T07:54:11.461Z,46.60
2023-04-17T08:10:31.852Z,47.50
2023-04-17T08:12:58.617Z,43.17
2023-04-17T08:15:25.250Z,41.47
2023-04-17T08:17:52.086Z,41.13
2023-04-17T08:20:18.972Z,41.03
2023-04-17T08:22:46.475Z,39.15
2023-04-17T08:25:13.846Z,48.47
2023-04-17T08:27:42.505Z,41.20
2023-04-17T08:30:13.320Z,41.75
2023-04-17T08:32:42.737Z,42.43
2023-04-17T08:35:13.289Z,45.17
2023-04-17T08:37:40.856Z,37.28
2023-04-17T08:40:12.248Z,42.10
2023-04-17T08:42:41.608Z,47.40
2023-04-17T08:45:10.998Z,42.50
2023-04-17T08:47:41.973Z,48.33
2023-04-17T08:50:14.318Z,48.25
2023-04-17T08:52:46.144Z,40.67
2023-04-17T08:55:15.035Z,38.40
2023-04-17T08:58:01.093Z,41.17
2023-04-17T09:00:36.016Z,39.80
2023-04-17T09:03:04.552Z,38.25
2023-04-17T09:05:38.415Z,39.50
2023-04-17T09:08:20.496Z,37.03
2023-04-17T09:10:52.726Z,35.40
2023-04-17T09:13:21.946Z,36.75
2023-04-17T09:16:06.496Z,34.25
2023-04-17T09:18:34.615Z,36.88
2023-04-17T09:21:02.349Z,38.67
2023-04-17T09:23:30.992Z,35.60
2023-04-17T09:26:11.888Z,40.50
2023-04-17T09:28:41.467Z,38.40
2023-04-17T10:55:50.351Z,20.92
2023-04-17T10:58:16.886Z,19.98
2023-04-17T11:00:51.423Z,19.83
2023-04-17T11:03:18.443Z,22.53
2023-04-17T11:05:46.862Z,22.00
2023-04-17T11:08:14.013Z,22.02
2023-04-17T11:10:40.760Z,19.33
2023-04-17T11:13:07.411Z,25.98
2023-04-17T11:15:35.737Z,21.07
2023-04-17T11:18:03.587Z,22.13
2023-04-17T11:20:32.329Z,24.75
2023-04-17T11:23:03.229Z,26.38
2023-04-17T11:25:32.747Z,22.95
2023-04-17T11:28:01.249Z,54.33
2023-04-17T11:30:33.301Z,33.90
2023-04-17T11:33:01.751Z,23.63
2023-04-17T11:35:30.439Z,29.85
2023-04-17T11:38:21.593Z,25.63
2023-04-17T11:40:58.517Z,25.33
2023-04-17T11:43:26.254Z,21.67
2023-04-17T11:45:56.936Z,23.80
2023-04-17T11:48:25.635Z,31.92
2023-04-17T11:50:57.961Z,27.90
2023-04-17T11:53:25.326Z,24.47
2023-04-17T11:56:15.889Z,19.77
2023-04-17T11:58:46.735Z,19.65
2023-04-17T12:01:13.509Z,21.95
2023-04-17T12:03:41.663Z,19.40
2023-04-17T12:06:11.764Z,18.83
2023-04-17T12:08:50.396Z,18.08
2023-04-17T12:11:24.923Z,45.60
2023-04-17T12:13:53.067Z,22.02
2023-04-17T12:16:19.929Z,20.90
2023-04-17T12:18:46.492Z,26.40
2023-04-17T12:21:13.925Z,24.15
2023-04-17T12:23:41.422Z,27.98
2023-04-17T12:26:08.804Z,25.58
2023-04-17T12:28:35.882Z,23.75
2023-04-17T12:31:04.027Z,19.47
2023-04-17T12:33:31.215Z,26.88
2023-04-17T12:35:58.635Z,29.20
2023-04-17T12:38:25.282Z,27.48
2023-04-17T12:40:51.997Z,28.40
2023-04-17T12:43:18.737Z,20.93
2023-04-17T12:45:48.229Z,21.02
2023-04-17T12:48:14.997Z,21.95
2023-04-17T12:50:44.912Z,16.20
2023-04-17T12:53:13.709Z,18.23
2023-04-17T12:55:41.509Z,17.03
2023-04-17T12:58:11.118Z,17.42
2023-04-17T13:00:39.144Z,16.17
2023-04-17T13:03:06.144Z,17.67
2023-04-17T13:05:32.936Z,30.00
2023-04-17T13:07:59.649Z,17.33
2023-04-17T13:10:26.278Z,23.73
2023-04-17T13:12:53.746Z,22.77
2023-04-17T13:15:20.383Z,14.90
2023-04-17T13:17:47.237Z,16.48
2023-04-17T13:20:14.211Z,31.67
2023-04-17T13:22:41.062Z,24.90
2023-04-17T13:25:08.017Z,16.38
2023-04-17T13:27:34.660Z,14.73
2023-04-17T13:30:01.295Z,14.70
2023-04-17T13:32:28.212Z,14.23
2023-04-17T13:34:57.397Z,15.30
2023-04-17T13:37:25.660Z,16.50
2023-04-17T13:39:52.472Z,20.70
2023-04-17T13:42:19.868Z,12.73
2023-04-17T13:44:46.526Z,12.27
2023-04-17T13:47:14.042Z,14.00
2023-04-17T13:49:40.780Z,12.77
2023-04-17T13:52:07.893Z,13.90
2023-04-17T13:54:34.481Z,13.00
2023-04-17T13:57:01.675Z,13.77
2023-04-17T13:59:28.428Z,16.05
2023-04-17T14:01:55.219Z,13.50
2023-04-17T14:04:22.249Z,13.50
2023-04-17T14:06:50.905Z,14.35
2023-04-17T14:09:17.839Z,12.20
2023-04-17T14:11:44.468Z,12.32
2023-04-17T14:14:12.956Z,12.32
2023-04-17T14:16:43.374Z,13.18
2023-04-17T14:19:14.078Z,13.48
2023-04-17T14:21:41.227Z,18.70
2023-04-17T14:24:07.951Z,15.25
2023-04-17T14:26:34.764Z,16.42
2023-04-17T14:29:01.599Z,12.63
2023-04-17T14:31:28.461Z,13.32
2023-04-17T14:33:55.312Z,14.23
2023-04-17T14:36:22.053Z,19.05
2023-04-17T14:38:51.348Z,13.02
2023-04-17T14:41:18.392Z,13.95
2023-04-17T14:43:45.013Z,16.58
2023-04-17T14:46:11.783Z,13.70
2023-04-17T14:48:54.253Z,14.43
2023-04-17T14:51:23.596Z,17.25
2023-04-17T14:53:53.079Z,13.05
2023-04-17T14:56:21.705Z,11.75
2023-04-17T15:01:54.945Z,17.85
2023-04-17T15:04:21.713Z,12.63
2023-04-17T15:06:49.176Z,13.13
2023-04-17T15:09:15.681Z,14.32
2023-04-17T15:11:42.178Z,12.27
2023-04-17T15:14:08.669Z,14.50
2023-04-17T15:16:35.287Z,13.27
2023-04-17T15:19:01.793Z,12.88
2023-04-17T15:21:28.406Z,12.55
2023-04-17T15:23:54.935Z,15.37
2023-04-17T15:26:21.486Z,13.63
2023-04-17T15:28:48.025Z,13.98
2023-04-17T15:31:14.608Z,11.98
2023-04-17T15:33:41.276Z,12.85
2023-04-17T15:36:07.818Z,14.93
2023-04-17T15:38:34.308Z,13.90
2023-04-17T15:41:00.868Z,12.60
2023-04-17T15:43:27.685Z,13.55
2023-04-17T15:45:54.717Z,14.98
2023-04-17T15:48:21.267Z,13.70
2023-04-17T15:50:47.779Z,14.50
2023-04-17T15:53:14.334Z,12.25
2023-04-17T15:55:41.258Z,12.18
2023-04-17T15:58:08.180Z,13.35
2023-04-17T16:00:34.674Z,14.23
2023-04-17T16:03:01.404Z,12.13
2023-04-17T16:05:30.255Z,11.45
2023-04-17T16:07:57.096Z,15.00
2023-04-17T16:10:23.609Z,12.57
2023-04-17T16:12:50.195Z,14.40
2023-04-17T16:15:17.568Z,13.80
2023-04-17T16:17:45.602Z,13.23
2023-04-17T16:20:12.679Z,15.50
2023-04-17T16:22:39.243Z,11.30
2023-04-17T16:25:06.702Z,13.80
2023-04-17T16:27:33.673Z,11.57
2023-04-17T16:30:00.319Z,10.93
2023-04-17T16:32:27.373Z,11.35
2023-04-17T16:34:53.998Z,11.25
2023-04-17T16:37:20.650Z,10.70
2023-04-17T16:39:47.276Z,11.85
2023-04-17T16:42:14.410Z,13.10
2023-04-17T16:44:40.948Z,10.70
2023-04-17T16:47:13.294Z,11.15
2023-04-17T16:49:41.499Z,12.10
2023-04-17T16:52:08.071Z,12.38
2023-04-17T16:54:34.831Z,10.90
2023-04-17T16:57:01.465Z,11.13
2023-04-17T16:59:28.026Z,12.70
2023-04-17T17:01:54.615Z,15.13
2023-04-17T17:04:21.231Z,9.98
2023-04-17T17:06:47.882Z,9.88
2023-04-17T17:09:14.577Z,10.90
2023-04-17T17:11:41.240Z,11.63
2023-04-17T17:14:07.771Z,11.20
2023-04-17T17:16:34.309Z,13.20
2023-04-17T17:19:00.805Z,11.05
2023-04-17T17:21:28.580Z,9.65
2023-04-17T17:23:55.092Z,10.68
2023-04-17T17:26:21.651Z,11.13
2023-04-17T17:28:51.240Z,11.45
2023-04-17T17:31:18.044Z,11.20
2023-04-17T17:33:44.891Z,14.07
2023-04-17T17:36:11.998Z,14.00
2023-04-17T17:38:38.987Z,10.03
2023-04-17T17:41:05.737Z,12.68
2023-04-17T17:43:32.301Z,8.43
2023-04-17T17:45:58.872Z,11.43
2023-04-17T17:48:25.886Z,10.32
2023-04-17T17:50:55.966Z,9.43
2023-04-17T17:53:26.371Z,11.38
2023-04-17T17:55:55.437Z,8.80
2023-04-17T17:58:22.618Z,12.48
2023-04-17T18:00:50.060Z,8.70
2023-04-17T18:03:16.948Z,13.33
2023-04-17T18:05:44.703Z,12.13
2023-04-17T18:08:11.277Z,9.75
2023-04-17T18:10:37.915Z,9.57
2023-04-17T18:13:04.553Z,12.10
2023-04-17T18:15:31.149Z,11.43
2023-04-17T18:17:57.705Z,10.40
2023-04-17T18:20:24.452Z,13.02
2023-04-17T18:22:51.932Z,10.57
2023-04-17T18:25:18.521Z,10.43
2023-04-17T18:27:45.214Z,12.07
2023-04-17T18:30:12.145Z,11.32
2023-04-17T18:32:38.688Z,9.77
2023-04-17T18:35:05.814Z,10.70
2023-04-17T18:37:32.380Z,10.23
2023-04-17T18:39:58.888Z,9.07
2023-04-17T18:42:25.525Z,10.20
2023-04-17T18:44:52.017Z,10.32
2023-04-17T18:47:19.995Z,10.07
2023-04-17T18:49:46.497Z,10.45
2023-04-17T18:52:13.029Z,12.10
2023-04-17T18:54:39.533Z,10.80
2023-04-17T18:57:06.100Z,9.07
2023-04-17T18:59:32.656Z,11.02
2023-04-17T19:01:59.264Z,10.52
2023-04-17T19:04:26.191Z,10.93
2023-04-17T19:06:53.032Z,11.23
2023-04-17T19:09:19.710Z,10.50
2023-04-17T19:11:46.290Z,11.32
2023-04-17T19:14:12.943Z,10.57
2023-04-17T19:16:39.597Z,13.33
2023-04-17T19:19:06.272Z,8.98
2023-04-17T19:21:33.020Z,13.13
2023-04-17T19:23:59.539Z,10.90
2023-04-17T19:26:26.173Z,11.23
2023-04-17T19:28:52.677Z,8.73
2023-04-17T19:31:19.656Z,12.52
2023-04-17T19:33:46.287Z,9.48
2023-04-17T19:36:12.916Z,12.80
2023-04-17T19:38:39.414Z,12.65
2023-04-17T19:41:19.271Z,11.03
2023-04-17T19:43:47.108Z,12.50
2023-04-17T19:46:14.029Z,11.35
2023-04-17T19:48:43.413Z,10.85
2023-04-17T19:51:10.209Z,12.18
2023-04-17T19:53:39.263Z,10.13
2023-04-17T19:56:08.469Z,11.32
2023-04-17T19:58:36.264Z,12.77
2023-04-17T20:01:02.918Z,12.45
2023-04-17T20:03:30.549Z,12.38
2023-04-17T20:05:57.860Z,16.50
2023-04-17T20:08:25.582Z,10.63
2023-04-17T20:10:52.251Z,11.02
2023-04-17T20:13:18.834Z,12.38
2023-04-17T20:15:45.428Z,10.38
2023-04-17T20:18:12.158Z,11.27
2023-04-17T20:20:39.165Z,12.30
2023-04-17T20:23:05.771Z,10.43
2023-04-17T20:25:32.310Z,15.77
2023-04-17T20:27:58.838Z,11.63
2023-04-17T20:30:25.486Z,10.27
2023-04-17T20:32:52.130Z,11.35
2023-04-17T20:35:21.005Z,11.15
2023-04-17T20:37:47.617Z,9.80
2023-04-17T20:40:14.293Z,9.48
2023-04-17T20:42:42.137Z,11.27
2023-04-17T20:45:09.586Z,12.52
2023-04-17T20:47:37.509Z,12.80
2023-04-17T20:50:05.942Z,11.50
2023-04-17T20:52:33.070Z,13.27
2023-04-17T20:55:00.908Z,14.40
2023-04-17T20:57:28.310Z,13.32
2023-04-17T20:59:54.880Z,12.63
2023-04-17T21:02:21.916Z,14.95
2023-04-17T21:04:48.913Z,14.13
2023-04-17T21:07:15.677Z,16.13
2023-04-17T21:09:42.192Z,11.45
2023-04-17T21:12:08.863Z,13.55
2023-04-17T21:14:36.629Z,14.90
2023-04-17T21:17:03.156Z,15.68
2023-04-17T21:19:30.797Z,13.93
2023-04-17T21:21:58.232Z,14.02
2023-04-17T21:24:25.297Z,15.70
2023-04-17T21:26:53.331Z,14.70
2023-04-17T21:29:19.846Z,15.40
2023-04-17T21:31:46.437Z,15.67
2023-04-17T21:34:13.223Z,16.33
2023-04-17T21:36:40.061Z,13.73
2023-04-17T21:39:07.140Z,14.20
2023-04-17T21:41:33.770Z,15.82
2023-04-17T21:44:02.449Z,17.43
2023-04-17T21:46:29.367Z,15.27
2023-04-17T21:48:56.003Z,17.95
2023-04-17T21:51:23.358Z,16.70
2023-04-17T21:53:49.825Z,14.60
2023-04-17T21:56:16.392Z,13.80
2023-04-17T21:58:42.908Z,14.07
2023-04-17T22:01:09.450Z,12.75
2023-04-17T22:03:36.057Z,15.52
2023-04-17T22:06:02.658Z,15.85
2023-04-17T22:08:29.201Z,14.23
2023-04-17T22:10:55.658Z,15.43
2023-04-17T22:13:22.251Z,14.70
2023-04-17T22:15:49.283Z,14.93
2023-04-17T22:18:15.888Z,14.95
2023-04-17T22:20:42.605Z,12.60
2023-04-17T22:23:09.133Z,16.10
2023-04-17T22:25:36.229Z,11.75
2023-04-17T22:28:02.732Z,12.68
2023-04-17T22:30:29.219Z,10.13
2023-04-17T22:32:57.298Z,12.73
2023-04-17T22:35:24.206Z,12.27
2023-04-17T22:37:50.722Z,10.25
2023-04-17T22:40:17.401Z,10.43
2023-04-17T22:42:43.973Z,11.27
2023-04-17T22:45:10.600Z,12.87
2023-04-17T22:47:37.143Z,11.27
2023-04-17T22:50:04.154Z,10.95
2023-04-17T22:52:30.698Z,11.43
2023-04-17T22:54:57.381Z,12.43
2023-04-17T22:57:23.909Z,16.20
2023-04-17T22:59:50.454Z,10.00
2023-04-17T23:02:17.210Z,11.02
2023-04-17T23:04:43.979Z,11.15
2023-04-17T23:07:10.591Z,13.13
2023-04-17T23:09:37.101Z,14.43
2023-04-17T23:12:03.822Z,9.82
2023-04-17T23:14:30.330Z,14.00
2023-04-17T23:16:56.896Z,10.63
2023-04-17T23:19:23.437Z,12.65
2023-04-17T23:21:50.014Z,10.27
2023-04-17T23:24:16.610Z,11.95
2023-04-17T23:26:43.139Z,10.15
2023-04-17T23:29:09.641Z,14.75
2023-04-17T23:31:39.216Z,11.63
2023-04-17T23:34:05.801Z,11.77
2023-04-17T23:36:32.306Z,13.50
2023-04-17T23:38:58.806Z,11.38
2023-04-17T23:41:26.599Z,9.50
2023-04-17T23:43:55.819Z,14.60
2023-04-17T23:46:22.390Z,11.87
2023-04-17T23:48:48.918Z,10.25
2023-04-17T23:51:15.563Z,11.68
2023-04-17T23:53:42.082Z,12.50
2023-04-17T23:56:08.636Z,12.35
2023-04-17T23:58:35.238Z,10.77
